Linda Reed — WDE8222 — position and weather

sailwx.info

Track history (hours):
 
Tides and Currents Weather Stations Pressure Air Temp Water Temp Dewpoint Dewpoint Depression Visibility Wind Speed Wind Dir Waves Ship Positions

Linda Reed

Owner: Crounse Corporation, Maysville, KY. More information available from US FCC via Universal Licensing System and Coast Guard Vessel Documentation Center.

Last reported at 2015-Jun-19 05:29 UTC. Time now 2015-Jul-05 21:02 UTC.
Position N 38°32' W 082°41'.
Warning: this ship's position is 16 days out of date.

Length 45 m.

Type: Tow > 200 m length. MMSI: 367402990.

Date/timePositionNaut miles runAvg speedWind from/ knotsBaromVisibWave heightAir tempDewpointWater temp
2015-Jun-19 05:29N 38°32' W 082°41'3 3.1
2015-Jun-19 04:31N 38°33' W 082°45'28 1.6
2015-Jun-18 10:25N 38°39' W 083°20'5 2.8
2015-Jun-18 08:33N 38°40' W 083°27'3 2.9
2015-Jun-18 07:33N 38°42' W 083°30'15 2.3
2015-Jun-18 01:18N 38°42' W 083°49'3 3.0
2015-Jun-18 00:12N 38°45' W 083°51'2 3.4
2015-Jun-17 23:33N 38°46' W 083°54'8 3.5
2015-Jun-17 21:20N 38°46' W 084°04'3 3.8
2015-Jun-17 20:33N 38°47' W 084°07'3 2.5
2015-Jun-17 19:32N 38°48' W 084°11'2 1.6
2015-Jun-17 18:32N 38°48' W 084°13'1 0.9
2015-Jun-17 17:33N 38°49' W 084°13'3 3.0
2015-Jun-17 16:33N 38°52' W 084°14'3 2.8
2015-Jun-17 15:33N 38°54' W 084°15'3 2.9
2015-Jun-17 14:33N 38°57' W 084°17'3 2.9
2015-Jun-17 13:33N 38°60' W 084°18'3 2.7
2015-Jun-17 12:33N 39°02' W 084°20'3 2.8
2015-Jun-17 11:31N 39°03' W 084°24'2 2.5
2015-Jun-17 10:33N 39°04' W 084°26'3 2.7
2015-Jun-17 09:32N 39°07' W 084°27'2 2.2
2015-Jun-17 08:33N 39°06' W 084°30'2 2.1
2015-Jun-17 07:33N 39°06' W 084°32'2 1.7
2015-Jun-17 06:33N 39°05' W 084°34'3 2.5
2015-Jun-17 05:32N 39°04' W 084°37'3 3.2
2015-Jun-17 04:32N 39°06' W 084°41'3 3.2
2015-Jun-17 03:33N 39°08' W 084°44'3 2.8
2015-Jun-17 02:32N 39°07' W 084°47'3 3.0
2015-Jun-17 01:32N 39°06' W 084°50'4 3.0
2015-Jun-17 00:22N 39°03' W 084°54'7 2.9
2015-Jun-16 22:04N 38°57' W 084°51'14600489.8
2015-Jun-15 16:16S 41°36' E 144°49'146053830.7
2015-Jun-15 12:27N 39°03' W 084°53'5 5.3
2015-Jun-15 11:32N 39°06' W 084°49'1 1.0
2015-Jun-15 10:33N 39°07' W 084°48'0 0.1
2015-Jun-15 09:33N 39°07' W 084°48'3 3.2
2015-Jun-15 08:33N 39°09' W 084°45'5 4.6
2015-Jun-15 07:33N 39°06' W 084°40'4 4.4
2015-Jun-15 06:33N 39°05' W 084°34'4 4.2
2015-Jun-15 05:33N 39°06' W 084°29'3 3.2
2015-Jun-15 04:33N 39°04' W 084°26'4 4.4
2015-Jun-15 03:33N 39°02' W 084°21'5 4.7
2015-Jun-15 02:33N 38°58' W 084°18'5 5.0
2015-Jun-15 01:34N 38°54' W 084°15'2 2.4
2015-Jun-15 00:33N 38°52' W 084°14'1 0.6
2015-Jun-14 23:33N 38°52' W 084°14'0 0.5
2015-Jun-14 22:33N 38°52' W 084°14'5 4.4
2015-Jun-14 21:31N 38°48' W 084°11'2 2.4
2015-Jun-14 20:30N 38°47' W 084°08'13 4.5
2015-Jun-14 17:33N 38°45' W 083°51'21 2.2
2015-Jun-14 08:19N 38°40' W 083°26'8 4.3
2015-Jun-14 06:31N 38°36' W 083°17'  
Track history (hours):
 
Tides and Currents Weather Stations Pressure Air Temp Water Temp Dewpoint Dewpoint Depression Visibility Wind Speed Wind Dir Waves Ship Positions

Linda Reed

Owner: Crounse Corporation, Maysville, KY. More information available from US FCC via Universal Licensing System and Coast Guard Vessel Documentation Center.

Last reported at 2015-Jun-19 05:29 UTC. Time now 2015-Jul-05 21:02 UTC.
Position N 38°32' W 082°41'.
Warning: this ship's position is 16 days out of date.

Length 45 m.

Type: Tow > 200 m length. MMSI: 367402990.

Date/timePositionNaut miles runAvg speedWind from/ knotsBaromVisibWave heightAir tempDewpointWater temp
2015-Jun-19 05:29N 38°32' W 082°41'3 3.1
2015-Jun-19 04:31N 38°33' W 082°45'28 1.6
2015-Jun-18 10:25N 38°39' W 083°20'5 2.8
2015-Jun-18 08:33N 38°40' W 083°27'3 2.9
2015-Jun-18 07:33N 38°42' W 083°30'15 2.3
2015-Jun-18 01:18N 38°42' W 083°49'3 3.0
2015-Jun-18 00:12N 38°45' W 083°51'2 3.4
2015-Jun-17 23:33N 38°46' W 083°54'8 3.5
2015-Jun-17 21:20N 38°46' W 084°04'3 3.8
2015-Jun-17 20:33N 38°47' W 084°07'3 2.5
2015-Jun-17 19:32N 38°48' W 084°11'2 1.6
2015-Jun-17 18:32N 38°48' W 084°13'1 0.9
2015-Jun-17 17:33N 38°49' W 084°13'3 3.0
2015-Jun-17 16:33N 38°52' W 084°14'3 2.8
2015-Jun-17 15:33N 38°54' W 084°15'3 2.9
2015-Jun-17 14:33N 38°57' W 084°17'3 2.9
2015-Jun-17 13:33N 38°60' W 084°18'3 2.7
2015-Jun-17 12:33N 39°02' W 084°20'3 2.8
2015-Jun-17 11:31N 39°03' W 084°24'2 2.5
2015-Jun-17 10:33N 39°04' W 084°26'3 2.7
2015-Jun-17 09:32N 39°07' W 084°27'2 2.2
2015-Jun-17 08:33N 39°06' W 084°30'2 2.1
2015-Jun-17 07:33N 39°06' W 084°32'2 1.7
2015-Jun-17 06:33N 39°05' W 084°34'3 2.5
2015-Jun-17 05:32N 39°04' W 084°37'3 3.2
2015-Jun-17 04:32N 39°06' W 084°41'3 3.2
2015-Jun-17 03:33N 39°08' W 084°44'3 2.8
2015-Jun-17 02:32N 39°07' W 084°47'3 3.0
2015-Jun-17 01:32N 39°06' W 084°50'4 3.0
2015-Jun-17 00:22N 39°03' W 084°54'7 2.9
2015-Jun-16 22:04N 38°57' W 084°51'14600489.8
2015-Jun-15 16:16S 41°36' E 144°49'146053830.7
2015-Jun-15 12:27N 39°03' W 084°53'5 5.3
2015-Jun-15 11:32N 39°06' W 084°49'1 1.0
2015-Jun-15 10:33N 39°07' W 084°48'0 0.1
2015-Jun-15 09:33N 39°07' W 084°48'3 3.2
2015-Jun-15 08:33N 39°09' W 084°45'5 4.6
2015-Jun-15 07:33N 39°06' W 084°40'4 4.4
2015-Jun-15 06:33N 39°05' W 084°34'4 4.2
2015-Jun-15 05:33N 39°06' W 084°29'3 3.2
2015-Jun-15 04:33N 39°04' W 084°26'4 4.4
2015-Jun-15 03:33N 39°02' W 084°21'5 4.7
2015-Jun-15 02:33N 38°58' W 084°18'5 5.0
2015-Jun-15 01:34N 38°54' W 084°15'2 2.4
2015-Jun-15 00:33N 38°52' W 084°14'1 0.6
2015-Jun-14 23:33N 38°52' W 084°14'0 0.5
2015-Jun-14 22:33N 38°52' W 084°14'5 4.4
2015-Jun-14 21:31N 38°48' W 084°11'2 2.4
2015-Jun-14 20:30N 38°47' W 084°08'13 4.5
2015-Jun-14 17:33N 38°45' W 083°51'21 2.2
2015-Jun-14 08:19N 38°40' W 083°26'8 4.3
2015-Jun-14 06:31N 38°36' W 083°17'  

Dump ship's entire track history